createdAt,value
2023-11-24T00:00:25.669Z,3.03
2023-11-24T00:03:27.158Z,2.95
2023-11-24T00:06:29.493Z,2.58
2023-11-24T00:09:31.478Z,2.63
2023-11-24T00:12:33.064Z,2.65
2023-11-24T00:15:34.504Z,2.28
2023-11-24T00:18:37.478Z,1.98
2023-11-24T00:21:38.841Z,1.77
2023-11-24T00:24:40.202Z,2.42
2023-11-24T00:27:41.578Z,1.60
2023-11-24T00:30:43.267Z,2.10
2023-11-24T00:33:44.668Z,1.83
2023-11-24T00:36:47.544Z,1.90
2023-11-24T00:39:51.304Z,2.30
2023-11-24T00:42:52.908Z,1.52
2023-11-24T00:45:54.810Z,1.73
2023-11-24T00:48:57.643Z,1.60
2023-11-24T00:51:59.086Z,1.98
2023-11-24T00:55:00.484Z,1.90
2023-11-24T00:58:01.911Z,1.90
2023-11-24T01:01:04.706Z,2.00
2023-11-24T01:04:06.280Z,2.35
2023-11-24T01:07:07.718Z,1.98
2023-11-24T01:10:09.504Z,2.00
2023-11-24T01:13:10.954Z,2.03
2023-11-24T01:16:12.478Z,2.08
2023-11-24T01:19:15.600Z,2.22
2023-11-24T01:22:16.971Z,2.65
2023-11-24T01:25:18.338Z,2.17
2023-11-24T01:28:19.622Z,2.13
2023-11-24T01:31:20.939Z,2.13
2023-11-24T01:34:22.340Z,2.22
2023-11-24T01:37:23.664Z,2.10
2023-11-24T01:40:27.734Z,2.13
2023-11-24T01:43:28.997Z,2.08
2023-11-24T01:46:31.546Z,2.47
2023-11-24T01:49:33.039Z,2.38
2023-11-24T01:52:35.060Z,2.15
2023-11-24T01:55:36.639Z,2.40
2023-11-24T01:58:38.636Z,2.42
2023-11-24T02:01:40.624Z,2.28
2023-11-24T02:04:42.386Z,1.92
2023-11-24T02:07:43.761Z,1.95
2023-11-24T02:10:45.879Z,2.13
2023-11-24T02:13:50.646Z,1.63
2023-11-24T02:16:51.990Z,1.60
2023-11-24T02:19:53.404Z,1.45
2023-11-24T02:22:54.709Z,1.42
2023-11-24T02:25:56.035Z,1.63
2023-11-24T02:28:57.599Z,1.35
2023-11-24T02:31:58.884Z,1.73
2023-11-24T02:35:01.111Z,1.38
2023-11-24T02:38:03.654Z,1.50
2023-11-24T02:41:06.798Z,1.30
2023-11-24T02:44:08.407Z,1.50
2023-11-24T02:47:09.758Z,1.15
2023-11-24T02:50:11.153Z,1.23
2023-11-24T02:53:12.429Z,1.40
2023-11-24T02:56:14.017Z,1.42
2023-11-24T02:59:15.347Z,1.60
2023-11-24T03:02:17.619Z,1.48
2023-11-24T03:05:19.053Z,0.73
2023-11-24T03:08:20.559Z,0.75
2023-11-24T03:11:26.238Z,1.23
2023-11-24T03:14:28.144Z,1.05
2023-11-24T03:17:29.487Z,1.17
2023-11-24T03:20:31.421Z,1.40
2023-11-24T03:23:32.803Z,1.42
2023-11-24T03:26:34.076Z,0.77
2023-11-24T03:29:37.393Z,1.23
2023-11-24T03:32:38.791Z,1.40
2023-11-24T03:35:40.086Z,1.23
2023-11-24T03:38:41.392Z,1.52
2023-11-24T03:41:42.651Z,1.27
2023-11-24T03:44:44.027Z,1.73
2023-11-24T03:47:45.485Z,1.52
2023-11-24T03:50:46.827Z,1.58
2023-11-24T03:53:48.120Z,1.73
2023-11-24T03:56:49.466Z,1.63
2023-11-24T03:59:50.741Z,1.85
2023-11-24T04:02:52.079Z,1.63
2023-11-24T04:05:53.899Z,1.80
2023-11-24T04:08:55.248Z,1.45
2023-11-24T04:11:57.015Z,1.55
2023-11-24T04:14:58.359Z,1.63
2023-11-24T04:17:59.743Z,1.55
2023-11-24T04:21:01.066Z,1.73
2023-11-24T04:24:02.467Z,1.13
2023-11-24T04:27:03.802Z,1.25
2023-11-24T04:30:05.820Z,2.20
2023-11-24T04:33:08.038Z,1.45
2023-11-24T04:36:09.597Z,2.75
2023-11-24T04:39:10.874Z,2.05
2023-11-24T04:42:12.180Z,1.70
2023-11-24T04:45:13.484Z,1.42
2023-11-24T04:48:14.766Z,1.98
2023-11-24T04:51:16.105Z,1.60
2023-11-24T04:54:17.385Z,1.48
2023-11-24T04:57:18.679Z,1.52
2023-11-24T05:00:20.166Z,1.50
2023-11-24T05:03:21.498Z,1.55
2023-11-24T05:06:22.835Z,2.03
2023-11-24T05:09:24.122Z,1.70
2023-11-24T05:12:25.435Z,1.83
2023-11-24T05:15:26.727Z,1.77
2023-11-24T05:18:28.106Z,1.52
2023-11-24T05:21:29.483Z,1.38
2023-11-24T05:24:30.818Z,1.73
2023-11-24T05:27:32.167Z,2.25
2023-11-24T05:30:33.527Z,1.63
2023-11-24T05:33:34.951Z,2.13
2023-11-24T05:36:36.433Z,1.58
2023-11-24T05:39:38.501Z,1.80
2023-11-24T05:42:40.147Z,1.90
2023-11-24T05:45:41.457Z,1.65
2023-11-24T05:48:42.767Z,1.58
2023-11-24T05:51:45.235Z,1.85
2023-11-24T05:54:46.957Z,1.95
2023-11-24T05:57:48.604Z,1.88
2023-11-24T06:00:50.290Z,1.45
2023-11-24T06:03:51.834Z,1.88
2023-11-24T06:06:53.256Z,1.95
2023-11-24T06:09:55.155Z,1.90
2023-11-24T06:12:56.494Z,2.03
2023-11-24T06:15:57.916Z,2.35
2023-11-24T06:19:01.954Z,2.35
2023-11-24T06:22:04.135Z,2.03
2023-11-24T06:25:05.794Z,2.70
2023-11-24T06:28:07.196Z,1.92
2023-11-24T06:31:11.502Z,2.00
2023-11-24T06:34:14.593Z,1.77
2023-11-24T06:37:16.011Z,1.70
2023-11-24T06:40:17.513Z,1.63
2023-11-24T06:43:19.091Z,1.98
2023-11-24T06:46:20.421Z,1.60
2023-11-24T06:49:21.727Z,1.65
2023-11-24T06:52:23.041Z,1.55
2023-11-24T06:55:24.391Z,1.83
2023-11-24T06:58:26.025Z,1.98
2023-11-24T07:01:33.248Z,2.13
2023-11-24T07:04:35.263Z,1.90
2023-11-24T07:07:36.558Z,2.05
2023-11-24T07:10:37.967Z,2.47
2023-11-24T07:13:39.358Z,2.08
2023-11-24T07:16:40.872Z,1.88
2023-11-24T07:19:42.453Z,2.05
2023-11-24T07:22:44.215Z,1.73
2023-11-24T07:25:47.635Z,2.08
2023-11-24T07:28:48.966Z,1.73
2023-11-24T07:31:50.248Z,2.00
2023-11-24T07:34:51.729Z,1.38
2023-11-24T07:37:53.078Z,2.15
2023-11-24T07:40:55.181Z,1.55
2023-11-24T07:43:57.237Z,1.42
2023-11-24T07:46:58.950Z,1.33
2023-11-24T07:50:00.346Z,1.33
2023-11-24T07:53:01.609Z,1.17
2023-11-24T07:56:05.168Z,1.50
2023-11-24T07:59:06.574Z,1.30
2023-11-24T08:02:07.961Z,1.38
2023-11-24T08:05:13.043Z,1.25
2023-11-24T08:08:14.770Z,1.27
2023-11-24T08:11:16.087Z,1.42
2023-11-24T08:14:18.702Z,1.48
2023-11-24T08:17:20.018Z,1.42
2023-11-24T08:20:22.123Z,2.22
2023-11-24T08:23:23.441Z,1.60
2023-11-24T08:26:24.736Z,1.67
2023-11-24T08:29:27.421Z,1.02
2023-11-24T08:32:28.811Z,1.25
2023-11-24T08:35:30.583Z,2.00
2023-11-24T08:38:31.881Z,1.35
2023-11-24T08:41:38.374Z,1.52
2023-11-24T08:44:42.068Z,1.83
2023-11-24T08:47:44.030Z,1.15
2023-11-24T08:50:45.409Z,1.52
2023-11-24T08:53:47.024Z,1.35
2023-11-24T08:56:48.382Z,1.13
2023-11-24T08:59:49.737Z,1.55
2023-11-24T09:02:51.132Z,1.20
2023-11-24T09:05:53.397Z,1.23
2023-11-24T09:08:55.702Z,1.35
2023-11-24T09:11:57.046Z,1.25
2023-11-24T09:14:58.435Z,1.95
2023-11-24T09:17:59.996Z,1.58
2023-11-24T09:21:01.433Z,1.45
2023-11-24T09:24:03.328Z,1.35
2023-11-24T09:27:04.900Z,1.42
2023-11-24T09:30:09.550Z,0.95
2023-11-24T09:33:12.186Z,1.27
2023-11-24T09:36:13.507Z,1.67
2023-11-24T09:39:18.367Z,1.25
2023-11-24T09:42:22.518Z,1.60
2023-11-24T09:45:27.727Z,1.40
2023-11-24T09:48:30.930Z,1.58
2023-11-24T09:51:33.865Z,1.17
2023-11-24T09:54:35.312Z,1.45
2023-11-24T09:57:36.647Z,1.40
2023-11-24T10:00:39.971Z,0.82
2023-11-24T10:03:43.144Z,1.60
2023-11-24T10:06:46.457Z,1.30
2023-11-24T10:09:50.807Z,0.98
2023-11-24T10:13:03.103Z,1.20
2023-11-24T10:16:05.218Z,1.15
2023-11-24T10:19:11.940Z,0.80
2023-11-24T10:22:13.244Z,1.10
2023-11-24T10:25:16.217Z,0.93
2023-11-24T10:28:19.084Z,1.77
2023-11-24T10:31:22.053Z,1.00
2023-11-24T10:34:25.578Z,1.08
2023-11-24T10:37:27.973Z,1.02
2023-11-24T10:40:29.974Z,1.23
2023-11-24T10:43:37.683Z,1.05
2023-11-24T10:46:45.033Z,0.73
2023-11-24T10:49:53.232Z,1.50
2023-11-24T10:53:06.488Z,1.40
2023-11-24T10:56:08.717Z,0.85
2023-11-24T10:59:14.942Z,1.33
2023-11-24T11:02:17.956Z,0.95
2023-11-24T11:05:19.468Z,1.02
2023-11-24T11:08:29.161Z,1.15
2023-11-24T11:11:31.612Z,0.88
2023-11-24T11:14:33.208Z,0.63
2023-11-24T11:17:34.665Z,0.90
2023-11-24T11:20:39.138Z,0.77
2023-11-24T11:26:45.432Z,1.00
2023-11-24T11:29:46.763Z,0.95
2023-11-24T11:33:01.799Z,0.85
2023-11-24T11:36:06.551Z,1.05
2023-11-24T11:39:08.162Z,0.82
2023-11-24T11:42:10.680Z,1.02
2023-11-24T11:45:13.084Z,0.77
2023-11-24T11:48:14.870Z,1.00
2023-11-24T11:51:19.788Z,0.85
2023-11-24T11:54:21.183Z,0.73
2023-11-24T11:57:23.056Z,1.08
2023-11-24T12:00:26.297Z,0.80
2023-11-24T12:03:29.026Z,0.82
2023-11-24T12:06:30.380Z,2.17
2023-11-24T12:09:32.774Z,1.45
2023-11-24T12:12:34.560Z,4.13
2023-11-24T12:15:39.145Z,1.52
2023-11-24T12:21:43.620Z,1.00
2023-11-24T12:24:45.450Z,1.33
2023-11-24T12:27:46.833Z,0.95
2023-11-24T12:30:48.985Z,1.25
2023-11-24T12:33:53.261Z,1.00
2023-11-24T12:36:55.154Z,0.73
2023-11-24T12:39:57.229Z,0.85
2023-11-24T12:43:00.105Z,0.95
2023-11-24T12:46:01.589Z,1.00
2023-11-24T12:49:04.988Z,1.40
2023-11-24T12:52:06.464Z,0.93
2023-11-24T12:55:08.859Z,1.48
2023-11-24T12:58:12.091Z,1.40
2023-11-24T13:01:14.559Z,0.65
2023-11-24T13:04:16.295Z,0.82
2023-11-24T13:07:20.463Z,1.08
2023-11-24T13:10:21.871Z,2.05
2023-11-24T13:13:23.349Z,1.35
2023-11-24T13:16:25.128Z,1.38
2023-11-24T13:19:26.820Z,0.95
2023-11-24T13:22:28.170Z,1.02
2023-11-24T13:25:30.231Z,1.20
2023-11-24T13:28:32.161Z,1.10
2023-11-24T13:31:36.989Z,1.10
2023-11-24T13:34:40.304Z,0.98
2023-11-24T13:37:43.244Z,0.85
2023-11-24T13:40:46.528Z,1.00
2023-11-24T13:43:47.942Z,1.88
2023-11-24T13:46:58.067Z,0.93
2023-11-24T13:49:59.733Z,0.95
2023-11-24T13:53:01.055Z,1.10
2023-11-24T13:56:02.382Z,0.90
2023-11-24T13:59:04.611Z,0.82
2023-11-24T14:02:07.332Z,1.13
2023-11-24T14:05:10.220Z,0.80
2023-11-24T14:08:11.672Z,0.80
2023-11-24T14:11:13.059Z,0.65
2023-11-24T14:14:14.910Z,0.82
2023-11-24T14:17:16.293Z,1.00
2023-11-24T14:20:17.741Z,0.70
2023-11-24T14:23:19.154Z,0.93
2023-11-24T14:26:20.511Z,0.73
2023-11-24T14:29:21.823Z,0.82
2023-11-24T14:32:24.143Z,0.82
2023-11-24T14:35:25.529Z,1.35
2023-11-24T14:38:30.974Z,1.10
2023-11-24T14:41:32.491Z,0.77
2023-11-24T14:44:33.824Z,0.90
2023-11-24T14:47:37.814Z,1.13
2023-11-24T14:50:39.165Z,0.88
2023-11-24T14:53:42.640Z,1.05
2023-11-24T14:56:49.164Z,1.13
2023-11-24T14:59:54.732Z,1.02
2023-11-24T15:02:57.316Z,0.80
2023-11-24T15:05:58.633Z,1.17
2023-11-24T15:09:04.675Z,1.00
2023-11-24T15:12:06.249Z,0.73
2023-11-24T15:15:07.894Z,0.65
2023-11-24T15:18:12.212Z,0.70
2023-11-24T15:21:29.191Z,0.82
2023-11-24T15:24:32.872Z,1.20
2023-11-24T15:27:34.319Z,1.20
2023-11-24T15:30:35.654Z,0.93
2023-11-24T15:33:37.753Z,1.08
2023-11-24T15:36:39.071Z,0.85
2023-11-24T15:39:44.666Z,1.20
2023-11-24T15:42:46.817Z,1.02
2023-11-24T15:45:55.195Z,0.95
2023-11-24T15:48:57.761Z,1.27
2023-11-24T15:51:59.305Z,0.88
2023-11-24T15:55:00.708Z,1.45
2023-11-24T15:58:03.911Z,1.38
2023-11-24T16:01:07.278Z,1.60
2023-11-24T16:04:12.256Z,1.63
2023-11-24T16:07:18.001Z,1.70
2023-11-24T16:10:19.975Z,2.45
2023-11-24T16:13:22.331Z,1.67
2023-11-24T16:16:25.506Z,1.85
2023-11-24T16:19:27.053Z,1.83
2023-11-24T16:22:28.865Z,1.55
2023-11-24T16:25:30.231Z,1.77
2023-11-24T16:28:31.501Z,1.65
2023-11-24T16:31:34.070Z,1.40
2023-11-24T16:34:36.533Z,1.63
2023-11-24T16:37:38.549Z,2.08
2023-11-24T16:40:39.865Z,1.40
2023-11-24T16:43:41.497Z,1.33
2023-11-24T16:46:54.214Z,1.65
2023-11-24T16:49:55.637Z,1.92
2023-11-24T16:52:57.050Z,1.73
2023-11-24T16:55:58.349Z,1.23
2023-11-24T16:58:59.854Z,1.48
2023-11-24T17:02:01.263Z,1.45
2023-11-24T17:05:04.220Z,2.25
2023-11-24T17:08:07.750Z,1.75
2023-11-24T17:11:09.400Z,1.40
2023-11-24T17:14:10.893Z,1.05
2023-11-24T17:17:15.184Z,1.42
2023-11-24T17:20:16.888Z,1.90
2023-11-24T17:23:18.462Z,1.98
2023-11-24T17:26:20.317Z,1.85
2023-11-24T17:29:22.782Z,1.40
2023-11-24T17:32:25.097Z,1.48
2023-11-24T17:35:26.552Z,2.22
2023-11-24T17:38:27.864Z,1.23
2023-11-24T17:41:30.115Z,1.50
2023-11-24T17:44:33.197Z,1.08
2023-11-24T17:47:36.393Z,1.20
2023-11-24T17:50:38.675Z,0.95
2023-11-24T17:53:42.205Z,1.02
2023-11-24T17:56:43.503Z,1.02
2023-11-24T17:59:44.859Z,1.20
2023-11-24T18:02:46.210Z,1.23
2023-11-24T18:05:47.586Z,1.15
2023-11-24T18:08:49.572Z,1.63
2023-11-24T18:11:51.104Z,1.42
2023-11-24T18:14:52.394Z,1.20
2023-11-24T18:17:53.802Z,1.23
2023-11-24T18:20:55.159Z,1.35
2023-11-24T18:23:56.580Z,1.30
2023-11-24T18:26:57.983Z,1.33
2023-11-24T18:29:59.262Z,0.90
2023-11-24T18:33:00.963Z,1.45
2023-11-24T18:36:04.293Z,1.50
2023-11-24T18:39:05.628Z,0.93
2023-11-24T18:42:07.110Z,0.82
2023-11-24T18:45:09.876Z,0.63
2023-11-24T18:48:11.336Z,0.95
2023-11-24T18:51:13.150Z,1.05
2023-11-24T18:54:14.702Z,1.13
2023-11-24T18:57:16.006Z,1.25
2023-11-24T19:00:19.898Z,1.17
2023-11-24T19:03:21.792Z,1.02
2023-11-24T19:06:23.371Z,0.77
2023-11-24T19:09:25.432Z,1.02
2023-11-24T19:12:26.755Z,1.02
2023-11-24T19:15:28.099Z,0.60
2023-11-24T19:18:29.368Z,1.05
2023-11-24T19:21:30.673Z,1.15
2023-11-24T19:24:32.436Z,1.10
2023-11-24T19:27:34.763Z,1.00
2023-11-24T19:30:37.806Z,0.85
2023-11-24T19:33:39.140Z,1.23
2023-11-24T19:36:42.514Z,1.80
2023-11-24T19:39:44.463Z,1.05
2023-11-24T19:42:45.882Z,1.95
2023-11-24T19:45:47.224Z,2.33
2023-11-24T19:48:51.593Z,1.63
2023-11-24T19:51:53.050Z,1.13
2023-11-24T19:54:54.445Z,0.73
2023-11-24T19:57:55.792Z,1.25
2023-11-24T20:00:57.425Z,1.10
2023-11-24T20:03:58.910Z,1.20
2023-11-24T20:07:00.578Z,1.00
2023-11-24T20:10:02.054Z,0.93
2023-11-24T20:13:05.241Z,0.88
2023-11-24T20:16:06.965Z,1.48
2023-11-24T20:19:09.238Z,1.55
2023-11-24T20:22:10.691Z,1.35
2023-11-24T20:25:12.304Z,1.42
2023-11-24T20:28:14.244Z,1.45
2023-11-24T20:31:16.785Z,1.60
2023-11-24T20:34:18.327Z,2.00
2023-11-24T20:37:19.880Z,1.63
2023-11-24T20:40:21.760Z,1.45
2023-11-24T20:43:24.368Z,1.08
2023-11-24T20:46:25.944Z,1.58
2023-11-24T20:49:29.008Z,2.90
2023-11-24T20:52:30.568Z,1.42
2023-11-24T20:55:33.190Z,1.17
2023-11-24T20:58:34.859Z,1.20
2023-11-24T21:01:36.690Z,1.23
2023-11-24T21:04:38.267Z,0.98
2023-11-24T21:07:40.840Z,1.13
2023-11-24T21:10:42.268Z,1.42
2023-11-24T21:13:44.397Z,1.33
2023-11-24T21:16:45.704Z,1.08
2023-11-24T21:19:47.070Z,1.25
2023-11-24T21:22:48.571Z,1.08
2023-11-24T21:25:49.952Z,0.90
2023-11-24T21:28:51.785Z,1.08
2023-11-24T21:31:53.184Z,1.40
2023-11-24T21:34:54.588Z,1.40
2023-11-24T21:37:55.857Z,1.38
2023-11-24T21:40:57.991Z,0.82
2023-11-24T21:43:59.302Z,0.82
2023-11-24T21:47:01.479Z,1.35
2023-11-24T21:50:03.206Z,1.02
2023-11-24T21:53:04.646Z,1.55
2023-11-24T21:56:06.140Z,1.42
2023-11-24T21:59:07.585Z,1.17
2023-11-24T22:02:09.005Z,1.20
2023-11-24T22:05:10.822Z,1.23
2023-11-24T22:08:12.693Z,0.73
2023-11-24T22:11:14.021Z,1.13
2023-11-24T22:14:15.625Z,1.33
2023-11-24T22:17:17.117Z,2.58
2023-11-24T22:20:20.296Z,0.82
2023-11-24T22:23:21.655Z,1.27
2023-11-24T22:26:25.016Z,1.08
2023-11-24T22:29:26.678Z,1.30
2023-11-24T22:32:28.391Z,1.02
2023-11-24T22:35:29.789Z,1.92
2023-11-24T22:38:31.078Z,1.13
2023-11-24T22:41:33.834Z,1.33
2023-11-24T22:44:35.382Z,1.25
2023-11-24T22:47:39.670Z,1.05
2023-11-24T22:50:42.388Z,0.88
2023-11-24T22:53:43.681Z,1.30
2023-11-24T22:56:44.977Z,1.35
2023-11-24T22:59:51.082Z,1.17
2023-11-24T23:02:52.477Z,1.27
2023-11-24T23:05:54.935Z,1.10
2023-11-24T23:08:57.141Z,1.10
2023-11-24T23:11:58.635Z,1.02
2023-11-24T23:15:00.923Z,0.82
2023-11-24T23:18:02.364Z,0.88
2023-11-24T23:21:04.385Z,1.30
2023-11-24T23:24:05.808Z,0.95
2023-11-24T23:27:07.900Z,1.00
2023-11-24T23:30:14.923Z,1.13
2023-11-24T23:33:18.506Z,0.90
2023-11-24T23:36:20.139Z,1.17
2023-11-24T23:39:21.897Z,1.02
2023-11-24T23:42:24.166Z,1.38
2023-11-24T23:45:26.170Z,0.80
2023-11-24T23:48:28.393Z,1.05
2023-11-24T23:51:30.433Z,1.13
2023-11-24T23:54:31.722Z,1.38
2023-11-24T23:57:37.931Z,1.15
